sensor_id;sensor_type;location;lat;lon;timestamp;P1;durP1;ratioP1;P2;durP2;ratioP2
22955;SDS011;40888;48.148;11.526;2024-02-21T00:01:39;4.27;;;2.63;;
22955;SDS011;40888;48.148;11.526;2024-02-21T00:04:05;6.20;;;2.50;;
22955;SDS011;40888;48.148;11.526;2024-02-21T00:06:31;5.90;;;2.57;;
22955;SDS011;40888;48.148;11.526;2024-02-21T00:08:57;3.93;;;2.23;;
22955;SDS011;40888;48.148;11.526;2024-02-21T00:11:23;6.60;;;3.20;;
22955;SDS011;40888;48.148;11.526;2024-02-21T00:13:49;5.17;;;2.73;;
22955;SDS011;40888;48.148;11.526;2024-02-21T00:16:15;6.97;;;2.80;;
22955;SDS011;40888;48.148;11.526;2024-02-21T00:18:41;7.13;;;2.80;;
22955;SDS011;40888;48.148;11.526;2024-02-21T00:21:08;4.93;;;2.40;;
22955;SDS011;40888;48.148;11.526;2024-02-21T00:23:33;3.03;;;2.57;;
22955;SDS011;40888;48.148;11.526;2024-02-21T00:25:59;5.87;;;2.77;;
22955;SDS011;40888;48.148;11.526;2024-02-21T00:28:24;5.27;;;2.70;;
22955;SDS011;40888;48.148;11.526;2024-02-21T00:30:50;4.40;;;2.40;;
22955;SDS011;40888;48.148;11.526;2024-02-21T00:33:18;4.73;;;2.70;;
22955;SDS011;40888;48.148;11.526;2024-02-21T00:35:44;5.30;;;2.60;;
22955;SDS011;40888;48.148;11.526;2024-02-21T00:38:09;6.63;;;2.67;;
22955;SDS011;40888;48.148;11.526;2024-02-21T00:40:35;3.90;;;2.50;;
22955;SDS011;40888;48.148;11.526;2024-02-21T00:43:01;4.47;;;2.50;;
22955;SDS011;40888;48.148;11.526;2024-02-21T00:45:27;5.57;;;2.63;;
22955;SDS011;40888;48.148;11.526;2024-02-21T00:47:53;4.00;;;2.40;;
22955;SDS011;40888;48.148;11.526;2024-02-21T00:50:19;5.63;;;2.47;;
22955;SDS011;40888;48.148;11.526;2024-02-21T00:52:44;4.03;;;2.70;;
22955;SDS011;40888;48.148;11.526;2024-02-21T00:55:10;6.80;;;2.70;;
22955;SDS011;40888;48.148;11.526;2024-02-21T00:57:36;6.30;;;2.73;;
22955;SDS011;40888;48.148;11.526;2024-02-21T01:00:02;4.57;;;2.40;;
22955;SDS011;40888;48.148;11.526;2024-02-21T01:02:28;5.77;;;2.57;;
22955;SDS011;40888;48.148;11.526;2024-02-21T01:04:56;5.67;;;2.60;;
22955;SDS011;40888;48.148;11.526;2024-02-21T01:07:22;4.40;;;2.60;;
22955;SDS011;40888;48.148;11.526;2024-02-21T01:09:48;5.77;;;2.67;;
22955;SDS011;40888;48.148;11.526;2024-02-21T01:12:16;4.47;;;2.13;;
22955;SDS011;40888;48.148;11.526;2024-02-21T01:14:42;3.17;;;2.27;;
22955;SDS011;40888;48.148;11.526;2024-02-21T01:17:07;4.50;;;2.40;;
22955;SDS011;40888;48.148;11.526;2024-02-21T01:19:33;3.63;;;2.50;;
22955;SDS011;40888;48.148;11.526;2024-02-21T01:21:59;4.53;;;2.40;;
22955;SDS011;40888;48.148;11.526;2024-02-21T01:24:24;3.33;;;2.20;;
22955;SDS011;40888;48.148;11.526;2024-02-21T01:26:50;4.70;;;2.30;;
22955;SDS011;40888;48.148;11.526;2024-02-21T01:29:16;3.67;;;2.50;;
22955;SDS011;40888;48.148;11.526;2024-02-21T01:31:41;6.03;;;2.63;;
22955;SDS011;40888;48.148;11.526;2024-02-21T01:34:07;3.10;;;2.00;;
22955;SDS011;40888;48.148;11.526;2024-02-21T01:36:33;4.33;;;2.53;;
22955;SDS011;40888;48.148;11.526;2024-02-21T01:38:59;3.30;;;2.10;;
22955;SDS011;40888;48.148;11.526;2024-02-21T01:41:24;3.33;;;2.10;;
22955;SDS011;40888;48.148;11.526;2024-02-21T01:43:50;5.33;;;2.07;;
22955;SDS011;40888;48.148;11.526;2024-02-21T01:46:16;5.17;;;2.20;;
22955;SDS011;40888;48.148;11.526;2024-02-21T01:48:42;4.50;;;2.17;;
22955;SDS011;40888;48.148;11.526;2024-02-21T01:51:08;4.30;;;2.37;;
22955;SDS011;40888;48.148;11.526;2024-02-21T01:53:34;2.77;;;2.27;;
22955;SDS011;40888;48.148;11.526;2024-02-21T01:56:02;5.77;;;2.43;;
22955;SDS011;40888;48.148;11.526;2024-02-21T01:58:30;3.53;;;2.10;;
22955;SDS011;40888;48.148;11.526;2024-02-21T02:00:57;2.63;;;1.70;;
22955;SDS011;40888;48.148;11.526;2024-02-21T02:03:23;3.00;;;2.07;;
22955;SDS011;40888;48.148;11.526;2024-02-21T02:05:50;3.97;;;2.00;;
22955;SDS011;40888;48.148;11.526;2024-02-21T02:08:17;4.33;;;1.97;;
22955;SDS011;40888;48.148;11.526;2024-02-21T02:10:44;3.83;;;2.00;;
22955;SDS011;40888;48.148;11.526;2024-02-21T02:13:10;2.63;;;1.77;;
22955;SDS011;40888;48.148;11.526;2024-02-21T02:15:49;4.53;;;2.27;;
22955;SDS011;40888;48.148;11.526;2024-02-21T02:18:15;3.77;;;1.80;;
22955;SDS011;40888;48.148;11.526;2024-02-21T02:20:42;3.77;;;1.90;;
22955;SDS011;40888;48.148;11.526;2024-02-21T02:23:10;2.30;;;1.80;;
22955;SDS011;40888;48.148;11.526;2024-02-21T02:25:37;3.70;;;1.93;;
22955;SDS011;40888;48.148;11.526;2024-02-21T02:28:06;2.13;;;1.90;;
22955;SDS011;40888;48.148;11.526;2024-02-21T02:30:33;3.43;;;2.23;;
22955;SDS011;40888;48.148;11.526;2024-02-21T02:33:02;3.33;;;1.77;;
22955;SDS011;40888;48.148;11.526;2024-02-21T02:35:29;2.30;;;1.73;;
22955;SDS011;40888;48.148;11.526;2024-02-21T02:37:54;4.63;;;2.30;;
22955;SDS011;40888;48.148;11.526;2024-02-21T02:40:20;6.30;;;2.03;;
22955;SDS011;40888;48.148;11.526;2024-02-21T02:42:46;2.90;;;1.70;;
22955;SDS011;40888;48.148;11.526;2024-02-21T02:45:13;4.50;;;1.53;;
22955;SDS011;40888;48.148;11.526;2024-02-21T02:47:46;2.90;;;2.00;;
22955;SDS011;40888;48.148;11.526;2024-02-21T02:50:12;2.87;;;1.83;;
22955;SDS011;40888;48.148;11.526;2024-02-21T02:52:38;2.50;;;1.60;;
22955;SDS011;40888;48.148;11.526;2024-02-21T02:55:04;2.80;;;1.40;;
22955;SDS011;40888;48.148;11.526;2024-02-21T02:57:31;2.77;;;1.53;;
22955;SDS011;40888;48.148;11.526;2024-02-21T02:59:57;2.30;;;1.60;;
22955;SDS011;40888;48.148;11.526;2024-02-21T03:02:22;2.53;;;1.50;;
22955;SDS011;40888;48.148;11.526;2024-02-21T03:04:48;1.43;;;1.33;;
22955;SDS011;40888;48.148;11.526;2024-02-21T03:07:14;2.30;;;1.77;;
22955;SDS011;40888;48.148;11.526;2024-02-21T03:09:41;2.30;;;1.47;;
22955;SDS011;40888;48.148;11.526;2024-02-21T03:12:09;2.43;;;1.50;;
22955;SDS011;40888;48.148;11.526;2024-02-21T03:14:36;4.00;;;1.80;;
22955;SDS011;40888;48.148;11.526;2024-02-21T03:17:01;1.73;;;1.27;;
22955;SDS011;40888;48.148;11.526;2024-02-21T03:19:28;4.70;;;2.00;;
22955;SDS011;40888;48.148;11.526;2024-02-21T03:21:54;3.33;;;1.60;;
22955;SDS011;40888;48.148;11.526;2024-02-21T03:24:20;1.87;;;1.30;;
22955;SDS011;40888;48.148;11.526;2024-02-21T03:26:46;3.00;;;1.63;;
22955;SDS011;40888;48.148;11.526;2024-02-21T03:29:13;1.47;;;1.37;;
22955;SDS011;40888;48.148;11.526;2024-02-21T03:31:40;3.40;;;1.60;;
22955;SDS011;40888;48.148;11.526;2024-02-21T03:34:06;1.30;;;1.20;;
22955;SDS011;40888;48.148;11.526;2024-02-21T03:36:31;1.80;;;1.47;;
22955;SDS011;40888;48.148;11.526;2024-02-21T03:38:57;4.97;;;1.70;;
22955;SDS011;40888;48.148;11.526;2024-02-21T03:41:22;2.53;;;1.40;;
22955;SDS011;40888;48.148;11.526;2024-02-21T03:43:48;2.37;;;1.50;;
22955;SDS011;40888;48.148;11.526;2024-02-21T03:46:14;3.77;;;1.70;;
22955;SDS011;40888;48.148;11.526;2024-02-21T03:48:40;2.53;;;1.87;;
22955;SDS011;40888;48.148;11.526;2024-02-21T03:51:06;4.63;;;1.57;;
22955;SDS011;40888;48.148;11.526;2024-02-21T03:53:32;3.03;;;1.50;;
22955;SDS011;40888;48.148;11.526;2024-02-21T03:56:00;2.47;;;1.47;;
22955;SDS011;40888;48.148;11.526;2024-02-21T03:58:28;1.93;;;1.53;;
22955;SDS011;40888;48.148;11.526;2024-02-21T04:00:59;2.60;;;1.50;;
22955;SDS011;40888;48.148;11.526;2024-02-21T04:03:26;2.70;;;1.30;;
22955;SDS011;40888;48.148;11.526;2024-02-21T04:05:52;3.77;;;1.60;;
22955;SDS011;40888;48.148;11.526;2024-02-21T04:08:18;3.00;;;1.43;;
22955;SDS011;40888;48.148;11.526;2024-02-21T04:10:43;3.57;;;1.30;;
22955;SDS011;40888;48.148;11.526;2024-02-21T04:13:09;2.90;;;1.37;;
22955;SDS011;40888;48.148;11.526;2024-02-21T04:15:35;2.60;;;1.70;;
22955;SDS011;40888;48.148;11.526;2024-02-21T04:18:01;1.53;;;1.23;;
22955;SDS011;40888;48.148;11.526;2024-02-21T04:20:28;2.07;;;1.40;;
22955;SDS011;40888;48.148;11.526;2024-02-21T04:22:54;3.13;;;1.30;;
22955;SDS011;40888;48.148;11.526;2024-02-21T04:25:20;1.53;;;1.30;;
22955;SDS011;40888;48.148;11.526;2024-02-21T04:27:46;2.77;;;1.50;;
22955;SDS011;40888;48.148;11.526;2024-02-21T04:30:11;1.50;;;1.30;;
22955;SDS011;40888;48.148;11.526;2024-02-21T04:32:37;2.20;;;1.50;;
22955;SDS011;40888;48.148;11.526;2024-02-21T04:35:03;2.27;;;1.50;;
22955;SDS011;40888;48.148;11.526;2024-02-21T04:37:29;1.30;;;1.10;;
22955;SDS011;40888;48.148;11.526;2024-02-21T04:39:56;2.63;;;1.00;;
22955;SDS011;40888;48.148;11.526;2024-02-21T04:42:21;1.63;;;1.17;;
22955;SDS011;40888;48.148;11.526;2024-02-21T04:44:47;1.13;;;1.03;;
22955;SDS011;40888;48.148;11.526;2024-02-21T04:47:12;1.70;;;1.30;;
22955;SDS011;40888;48.148;11.526;2024-02-21T04:49:38;3.93;;;1.53;;
22955;SDS011;40888;48.148;11.526;2024-02-21T04:52:04;2.97;;;1.20;;
22955;SDS011;40888;48.148;11.526;2024-02-21T04:54:30;2.40;;;1.53;;
22955;SDS011;40888;48.148;11.526;2024-02-21T04:56:56;2.63;;;1.30;;
22955;SDS011;40888;48.148;11.526;2024-02-21T04:59:21;2.83;;;1.40;;
22955;SDS011;40888;48.148;11.526;2024-02-21T05:01:47;3.40;;;1.40;;
22955;SDS011;40888;48.148;11.526;2024-02-21T05:04:13;3.53;;;1.30;;
22955;SDS011;40888;48.148;11.526;2024-02-21T05:06:41;1.50;;;1.30;;
22955;SDS011;40888;48.148;11.526;2024-02-21T05:09:07;2.30;;;1.20;;
22955;SDS011;40888;48.148;11.526;2024-02-21T05:11:34;1.33;;;1.10;;
22955;SDS011;40888;48.148;11.526;2024-02-21T05:14:00;3.07;;;1.50;;
22955;SDS011;40888;48.148;11.526;2024-02-21T05:16:26;3.00;;;1.30;;
22955;SDS011;40888;48.148;11.526;2024-02-21T05:18:51;2.33;;;1.20;;
22955;SDS011;40888;48.148;11.526;2024-02-21T05:21:17;1.40;;;1.30;;
22955;SDS011;40888;48.148;11.526;2024-02-21T05:23:43;2.00;;;1.20;;
22955;SDS011;40888;48.148;11.526;2024-02-21T05:26:08;2.83;;;1.50;;
22955;SDS011;40888;48.148;11.526;2024-02-21T05:28:34;2.20;;;1.10;;
22955;SDS011;40888;48.148;11.526;2024-02-21T05:31:00;1.97;;;1.30;;
22955;SDS011;40888;48.148;11.526;2024-02-21T05:33:26;2.00;;;1.40;;
22955;SDS011;40888;48.148;11.526;2024-02-21T05:35:51;1.30;;;1.20;;
22955;SDS011;40888;48.148;11.526;2024-02-21T05:38:17;1.30;;;1.20;;
22955;SDS011;40888;48.148;11.526;2024-02-21T05:40:46;1.20;;;1.10;;
22955;SDS011;40888;48.148;11.526;2024-02-21T05:43:11;1.70;;;1.30;;
22955;SDS011;40888;48.148;11.526;2024-02-21T05:45:37;1.77;;;1.13;;
22955;SDS011;40888;48.148;11.526;2024-02-21T05:48:03;1.30;;;1.20;;
22955;SDS011;40888;48.148;11.526;2024-02-21T05:50:29;1.17;;;0.93;;
22955;SDS011;40888;48.148;11.526;2024-02-21T05:52:55;2.03;;;1.33;;
22955;SDS011;40888;48.148;11.526;2024-02-21T05:55:21;1.50;;;1.40;;
22955;SDS011;40888;48.148;11.526;2024-02-21T05:57:47;1.87;;;1.20;;
22955;SDS011;40888;48.148;11.526;2024-02-21T06:00:13;1.73;;;1.43;;
22955;SDS011;40888;48.148;11.526;2024-02-21T06:02:40;1.30;;;1.20;;
22955;SDS011;40888;48.148;11.526;2024-02-21T06:05:06;1.40;;;1.30;;
22955;SDS011;40888;48.148;11.526;2024-02-21T06:07:33;2.50;;;1.50;;
22955;SDS011;40888;48.148;11.526;2024-02-21T06:09:59;1.70;;;1.30;;
22955;SDS011;40888;48.148;11.526;2024-02-21T06:12:26;1.30;;;1.20;;
22955;SDS011;40888;48.148;11.526;2024-02-21T06:14:52;1.33;;;1.23;;
22955;SDS011;40888;48.148;11.526;2024-02-21T06:17:17;2.13;;;1.20;;
22955;SDS011;40888;48.148;11.526;2024-02-21T06:19:43;2.50;;;1.40;;
22955;SDS011;40888;48.148;11.526;2024-02-21T06:22:10;3.10;;;1.43;;
22955;SDS011;40888;48.148;11.526;2024-02-21T06:24:36;2.40;;;1.70;;
22955;SDS011;40888;48.148;11.526;2024-02-21T06:27:05;3.03;;;1.53;;
22955;SDS011;40888;48.148;11.526;2024-02-21T06:29:33;2.50;;;1.57;;
22955;SDS011;40888;48.148;11.526;2024-02-21T06:31:59;1.70;;;1.37;;
22955;SDS011;40888;48.148;11.526;2024-02-21T06:34:25;2.07;;;1.40;;
22955;SDS011;40888;48.148;11.526;2024-02-21T06:36:51;3.00;;;1.33;;
22955;SDS011;40888;48.148;11.526;2024-02-21T06:39:17;1.53;;;1.30;;
22955;SDS011;40888;48.148;11.526;2024-02-21T06:41:43;3.00;;;1.60;;
22955;SDS011;40888;48.148;11.526;2024-02-21T06:44:08;2.13;;;1.30;;
22955;SDS011;40888;48.148;11.526;2024-02-21T06:46:34;2.13;;;1.27;;
22955;SDS011;40888;48.148;11.526;2024-02-21T06:49:00;3.43;;;1.40;;
22955;SDS011;40888;48.148;11.526;2024-02-21T06:51:27;1.77;;;1.40;;
22955;SDS011;40888;48.148;11.526;2024-02-21T06:53:53;1.20;;;1.20;;
22955;SDS011;40888;48.148;11.526;2024-02-21T06:56:19;2.47;;;1.30;;
22955;SDS011;40888;48.148;11.526;2024-02-21T06:58:45;2.33;;;1.20;;
22955;SDS011;40888;48.148;11.526;2024-02-21T07:01:10;2.27;;;1.57;;
22955;SDS011;40888;48.148;11.526;2024-02-21T07:03:36;1.60;;;1.47;;
22955;SDS011;40888;48.148;11.526;2024-02-21T07:06:02;3.63;;;1.43;;
22955;SDS011;40888;48.148;11.526;2024-02-21T07:08:28;1.77;;;1.40;;
22955;SDS011;40888;48.148;11.526;2024-02-21T07:10:53;1.40;;;1.20;;
22955;SDS011;40888;48.148;11.526;2024-02-21T07:13:19;2.33;;;1.37;;
22955;SDS011;40888;48.148;11.526;2024-02-21T07:15:46;1.53;;;1.23;;
22955;SDS011;40888;48.148;11.526;2024-02-21T07:18:13;4.20;;;1.40;;
22955;SDS011;40888;48.148;11.526;2024-02-21T07:20:38;1.63;;;1.30;;
22955;SDS011;40888;48.148;11.526;2024-02-21T07:23:06;1.37;;;1.20;;
22955;SDS011;40888;48.148;11.526;2024-02-21T07:25:32;2.83;;;1.43;;
22955;SDS011;40888;48.148;11.526;2024-02-21T07:27:58;1.37;;;1.17;;
22955;SDS011;40888;48.148;11.526;2024-02-21T07:30:23;2.43;;;1.53;;
22955;SDS011;40888;48.148;11.526;2024-02-21T07:32:49;1.33;;;1.00;;
22955;SDS011;40888;48.148;11.526;2024-02-21T07:35:16;2.07;;;1.10;;
22955;SDS011;40888;48.148;11.526;2024-02-21T07:37:42;2.50;;;1.37;;
22955;SDS011;40888;48.148;11.526;2024-02-21T07:40:14;3.03;;;0.93;;
22955;SDS011;40888;48.148;11.526;2024-02-21T07:42:41;3.37;;;1.13;;
22955;SDS011;40888;48.148;11.526;2024-02-21T07:45:07;2.30;;;1.20;;
22955;SDS011;40888;48.148;11.526;2024-02-21T07:47:33;3.67;;;1.00;;
22955;SDS011;40888;48.148;11.526;2024-02-21T07:49:59;2.03;;;0.80;;
22955;SDS011;40888;48.148;11.526;2024-02-21T07:52:25;1.23;;;0.80;;
22955;SDS011;40888;48.148;11.526;2024-02-21T07:54:51;1.97;;;1.23;;
22955;SDS011;40888;48.148;11.526;2024-02-21T07:57:17;3.63;;;1.20;;
22955;SDS011;40888;48.148;11.526;2024-02-21T07:59:43;1.80;;;1.10;;
22955;SDS011;40888;48.148;11.526;2024-02-21T08:02:08;1.37;;;0.90;;
22955;SDS011;40888;48.148;11.526;2024-02-21T08:04:34;0.70;;;0.70;;
22955;SDS011;40888;48.148;11.526;2024-02-21T08:07:00;2.90;;;1.20;;
22955;SDS011;40888;48.148;11.526;2024-02-21T08:09:29;2.03;;;1.13;;
22955;SDS011;40888;48.148;11.526;2024-02-21T08:11:55;1.40;;;1.27;;
22955;SDS011;40888;48.148;11.526;2024-02-21T08:14:21;2.10;;;0.97;;
22955;SDS011;40888;48.148;11.526;2024-02-21T08:16:47;2.50;;;0.97;;
22955;SDS011;40888;48.148;11.526;2024-02-21T08:19:13;1.10;;;0.97;;
22955;SDS011;40888;48.148;11.526;2024-02-21T08:21:39;2.60;;;1.17;;
22955;SDS011;40888;48.148;11.526;2024-02-21T08:24:04;2.75;;;0.75;;
22955;SDS011;40888;48.148;11.526;2024-02-21T08:26:30;2.85;;;1.00;;
22955;SDS011;40888;48.148;11.526;2024-02-21T08:28:58;0.90;;;0.80;;
22955;SDS011;40888;48.148;11.526;2024-02-21T08:31:25;1.10;;;0.80;;
22955;SDS011;40888;48.148;11.526;2024-02-21T08:34:05;2.72;;;0.98;;
22955;SDS011;40888;48.148;11.526;2024-02-21T08:36:31;0.73;;;0.43;;
22955;SDS011;40888;48.148;11.526;2024-02-21T08:39:00;3.15;;;0.90;;
22955;SDS011;40888;48.148;11.526;2024-02-21T08:41:33;1.60;;;0.80;;
22955;SDS011;40888;48.148;11.526;2024-02-21T08:43:59;1.15;;;0.65;;
22955;SDS011;40888;48.148;11.526;2024-02-21T08:46:25;1.60;;;0.98;;
22955;SDS011;40888;48.148;11.526;2024-02-21T08:48:51;2.15;;;1.05;;
22955;SDS011;40888;48.148;11.526;2024-02-21T08:51:18;1.13;;;1.00;;
22955;SDS011;40888;48.148;11.526;2024-02-21T08:53:44;0.80;;;0.80;;
22955;SDS011;40888;48.148;11.526;2024-02-21T08:56:13;1.30;;;0.77;;
22955;SDS011;40888;48.148;11.526;2024-02-21T08:58:39;2.08;;;0.90;;
22955;SDS011;40888;48.148;11.526;2024-02-21T09:01:06;3.55;;;0.98;;
22955;SDS011;40888;48.148;11.526;2024-02-21T09:03:35;2.47;;;0.75;;
22955;SDS011;40888;48.148;11.526;2024-02-21T09:06:04;3.13;;;0.98;;
22955;SDS011;40888;48.148;11.526;2024-02-21T09:08:31;2.80;;;0.88;;
22955;SDS011;40888;48.148;11.526;2024-02-21T09:10:57;3.10;;;1.17;;
22955;SDS011;40888;48.148;11.526;2024-02-21T09:13:23;1.70;;;0.90;;
22955;SDS011;40888;48.148;11.526;2024-02-21T09:15:49;2.13;;;0.80;;
22955;SDS011;40888;48.148;11.526;2024-02-21T09:18:15;3.20;;;1.17;;
22955;SDS011;40888;48.148;11.526;2024-02-21T09:20:41;1.10;;;0.80;;
22955;SDS011;40888;48.148;11.526;2024-02-21T09:23:07;2.13;;;0.90;;
22955;SDS011;40888;48.148;11.526;2024-02-21T09:25:33;1.45;;;1.02;;
22955;SDS011;40888;48.148;11.526;2024-02-21T09:28:00;1.35;;;0.77;;
22955;SDS011;40888;48.148;11.526;2024-02-21T09:30:27;0.88;;;0.60;;
22955;SDS011;40888;48.148;11.526;2024-02-21T09:32:53;1.73;;;0.75;;
22955;SDS011;40888;48.148;11.526;2024-02-21T09:35:18;2.33;;;0.57;;
22955;SDS011;40888;48.148;11.526;2024-02-21T09:37:44;1.13;;;0.55;;
22955;SDS011;40888;48.148;11.526;2024-02-21T09:40:10;1.42;;;0.90;;
22955;SDS011;40888;48.148;11.526;2024-02-21T09:42:37;2.25;;;0.75;;
22955;SDS011;40888;48.148;11.526;2024-02-21T09:45:08;2.88;;;0.85;;
22955;SDS011;40888;48.148;11.526;2024-02-21T09:47:43;0.40;;;0.40;;
22955;SDS011;40888;48.148;11.526;2024-02-21T09:50:18;3.10;;;0.60;;
22955;SDS011;40888;48.148;11.526;2024-02-21T09:52:46;0.55;;;0.52;;
22955;SDS011;40888;48.148;11.526;2024-02-21T09:55:13;1.73;;;0.55;;
22955;SDS011;40888;48.148;11.526;2024-02-21T09:57:41;2.83;;;0.80;;
22955;SDS011;40888;48.148;11.526;2024-02-21T10:00:09;0.70;;;0.50;;
22955;SDS011;40888;48.148;11.526;2024-02-21T10:02:35;1.25;;;0.55;;
22955;SDS011;40888;48.148;11.526;2024-02-21T10:05:01;3.00;;;0.73;;
22955;SDS011;40888;48.148;11.526;2024-02-21T10:07:29;1.52;;;0.60;;
22955;SDS011;40888;48.148;11.526;2024-02-21T10:10:02;1.05;;;0.70;;
22955;SDS011;40888;48.148;11.526;2024-02-21T10:12:28;1.67;;;0.55;;
22955;SDS011;40888;48.148;11.526;2024-02-21T10:15:02;0.55;;;0.50;;
22955;SDS011;40888;48.148;11.526;2024-02-21T10:17:28;3.72;;;0.70;;
22955;SDS011;40888;48.148;11.526;2024-02-21T10:19:54;0.95;;;0.47;;
22955;SDS011;40888;48.148;11.526;2024-02-21T10:22:20;0.85;;;0.55;;
22955;SDS011;40888;48.148;11.526;2024-02-21T10:24:46;7.57;;;1.33;;
22955;SDS011;40888;48.148;11.526;2024-02-21T10:27:12;0.60;;;0.50;;
22955;SDS011;40888;48.148;11.526;2024-02-21T10:29:37;0.82;;;0.50;;
22955;SDS011;40888;48.148;11.526;2024-02-21T10:32:13;1.13;;;0.57;;
22955;SDS011;40888;48.148;11.526;2024-02-21T10:34:41;4.22;;;0.55;;
22955;SDS011;40888;48.148;11.526;2024-02-21T10:37:08;0.73;;;0.52;;
22955;SDS011;40888;48.148;11.526;2024-02-21T10:39:35;1.63;;;0.50;;
22955;SDS011;40888;48.148;11.526;2024-02-21T10:42:03;0.77;;;0.52;;
22955;SDS011;40888;48.148;11.526;2024-02-21T10:44:29;1.17;;;0.60;;
22955;SDS011;40888;48.148;11.526;2024-02-21T10:46:56;0.60;;;0.47;;
22955;SDS011;40888;48.148;11.526;2024-02-21T10:49:23;2.13;;;0.45;;
22955;SDS011;40888;48.148;11.526;2024-02-21T10:51:54;0.80;;;0.43;;
22955;SDS011;40888;48.148;11.526;2024-02-21T10:56:59;1.40;;;0.63;;
22955;SDS011;40888;48.148;11.526;2024-02-21T10:59:27;0.68;;;0.50;;
22955;SDS011;40888;48.148;11.526;2024-02-21T11:01:55;0.30;;;0.22;;
22955;SDS011;40888;48.148;11.526;2024-02-21T11:04:20;0.57;;;0.55;;
22955;SDS011;40888;48.148;11.526;2024-02-21T11:06:46;1.08;;;0.40;;
22955;SDS011;40888;48.148;11.526;2024-02-21T11:09:13;0.30;;;0.30;;
22955;SDS011;40888;48.148;11.526;2024-02-21T11:11:39;0.40;;;0.40;;
22955;SDS011;40888;48.148;11.526;2024-02-21T11:14:07;0.95;;;0.40;;
22955;SDS011;40888;48.148;11.526;2024-02-21T11:16:37;0.45;;;0.28;;
22955;SDS011;40888;48.148;11.526;2024-02-21T11:19:07;0.90;;;0.30;;
22955;SDS011;40888;48.148;11.526;2024-02-21T11:21:54;1.35;;;0.40;;
22955;SDS011;40888;48.148;11.526;2024-02-21T11:24:31;2.20;;;0.30;;
22955;SDS011;40888;48.148;11.526;2024-02-21T11:29:45;1.98;;;0.60;;
22955;SDS011;40888;48.148;11.526;2024-02-21T11:32:15;0.65;;;0.30;;
22955;SDS011;40888;48.148;11.526;2024-02-21T11:34:59;0.47;;;0.43;;
22955;SDS011;40888;48.148;11.526;2024-02-21T11:37:30;0.35;;;0.30;;
22955;SDS011;40888;48.148;11.526;2024-02-21T11:40:02;0.30;;;0.30;;
22955;SDS011;40888;48.148;11.526;2024-02-21T11:42:28;0.40;;;0.40;;
22955;SDS011;40888;48.148;11.526;2024-02-21T11:44:56;1.00;;;0.35;;
22955;SDS011;40888;48.148;11.526;2024-02-21T11:47:22;1.58;;;0.30;;
22955;SDS011;40888;48.148;11.526;2024-02-21T11:49:48;0.22;;;0.22;;
22955;SDS011;40888;48.148;11.526;2024-02-21T11:52:18;0.57;;;0.40;;
22955;SDS011;40888;48.148;11.526;2024-02-21T11:54:50;1.27;;;0.50;;
22955;SDS011;40888;48.148;11.526;2024-02-21T11:57:16;1.38;;;0.52;;
22955;SDS011;40888;48.148;11.526;2024-02-21T11:59:43;0.57;;;0.50;;
22955;SDS011;40888;48.148;11.526;2024-02-21T12:02:11;1.38;;;0.30;;
22955;SDS011;40888;48.148;11.526;2024-02-21T12:04:37;0.85;;;0.40;;
22955;SDS011;40888;48.148;11.526;2024-02-21T12:07:03;0.90;;;0.55;;
22955;SDS011;40888;48.148;11.526;2024-02-21T12:09:30;1.05;;;0.73;;
22955;SDS011;40888;48.148;11.526;2024-02-21T12:12:05;0.32;;;0.32;;
22955;SDS011;40888;48.148;11.526;2024-02-21T12:14:32;0.68;;;0.40;;
22955;SDS011;40888;48.148;11.526;2024-02-21T12:16:59;0.22;;;0.22;;
22955;SDS011;40888;48.148;11.526;2024-02-21T12:19:28;0.25;;;0.22;;
22955;SDS011;40888;48.148;11.526;2024-02-21T12:21:54;0.52;;;0.40;;
22955;SDS011;40888;48.148;11.526;2024-02-21T12:24:26;1.33;;;0.25;;
22955;SDS011;40888;48.148;11.526;2024-02-21T12:26:53;0.45;;;0.20;;
22955;SDS011;40888;48.148;11.526;2024-02-21T12:29:20;0.25;;;0.25;;
22955;SDS011;40888;48.148;11.526;2024-02-21T12:31:46;0.43;;;0.43;;
22955;SDS011;40888;48.148;11.526;2024-02-21T12:34:12;0.30;;;0.25;;
22955;SDS011;40888;48.148;11.526;2024-02-21T12:36:43;0.30;;;0.30;;
22955;SDS011;40888;48.148;11.526;2024-02-21T12:39:10;0.20;;;0.20;;
22955;SDS011;40888;48.148;11.526;2024-02-21T12:41:36;0.30;;;0.28;;
22955;SDS011;40888;48.148;11.526;2024-02-21T12:44:06;0.95;;;0.40;;
22955;SDS011;40888;48.148;11.526;2024-02-21T12:46:33;0.75;;;0.30;;
22955;SDS011;40888;48.148;11.526;2024-02-21T12:48:59;0.20;;;0.20;;
22955;SDS011;40888;48.148;11.526;2024-02-21T12:51:25;2.40;;;0.50;;
22955;SDS011;40888;48.148;11.526;2024-02-21T12:53:51;1.83;;;0.47;;
22955;SDS011;40888;48.148;11.526;2024-02-21T12:56:17;0.57;;;0.30;;
22955;SDS011;40888;48.148;11.526;2024-02-21T12:58:42;0.98;;;0.28;;
22955;SDS011;40888;48.148;11.526;2024-02-21T13:01:08;0.30;;;0.22;;
22955;SDS011;40888;48.148;11.526;2024-02-21T13:03:34;0.65;;;0.30;;
22955;SDS011;40888;48.148;11.526;2024-02-21T13:05:59;1.48;;;0.30;;
22955;SDS011;40888;48.148;11.526;2024-02-21T13:08:25;2.78;;;0.50;;
22955;SDS011;40888;48.148;11.526;2024-02-21T13:10:51;0.90;;;0.40;;
22955;SDS011;40888;48.148;11.526;2024-02-21T13:13:16;1.30;;;0.35;;
22955;SDS011;40888;48.148;11.526;2024-02-21T13:15:42;0.25;;;0.13;;
22955;SDS011;40888;48.148;11.526;2024-02-21T13:18:08;0.88;;;0.40;;
22955;SDS011;40888;48.148;11.526;2024-02-21T13:20:35;0.25;;;0.22;;
22955;SDS011;40888;48.148;11.526;2024-02-21T13:23:01;0.52;;;0.35;;
22955;SDS011;40888;48.148;11.526;2024-02-21T13:25:27;0.57;;;0.30;;
22955;SDS011;40888;48.148;11.526;2024-02-21T13:27:53;1.27;;;0.57;;
22955;SDS011;40888;48.148;11.526;2024-02-21T13:30:18;0.20;;;0.20;;
22955;SDS011;40888;48.148;11.526;2024-02-21T13:32:44;0.87;;;0.40;;
22955;SDS011;40888;48.148;11.526;2024-02-21T13:35:13;1.40;;;0.40;;
22955;SDS011;40888;48.148;11.526;2024-02-21T13:37:39;0.80;;;0.20;;
22955;SDS011;40888;48.148;11.526;2024-02-21T13:40:06;2.80;;;0.40;;
22955;SDS011;40888;48.148;11.526;2024-02-21T13:42:34;0.40;;;0.20;;
22955;SDS011;40888;48.148;11.526;2024-02-21T13:45:00;0.77;;;0.40;;
22955;SDS011;40888;48.148;11.526;2024-02-21T13:47:26;1.40;;;0.57;;
22955;SDS011;40888;48.148;11.526;2024-02-21T13:49:52;0.97;;;0.50;;
22955;SDS011;40888;48.148;11.526;2024-02-21T13:52:18;0.87;;;0.43;;
22955;SDS011;40888;48.148;11.526;2024-02-21T13:54:46;0.30;;;0.30;;
22955;SDS011;40888;48.148;11.526;2024-02-21T13:57:12;0.50;;;0.28;;
22955;SDS011;40888;48.148;11.526;2024-02-21T13:59:39;0.50;;;0.40;;
22955;SDS011;40888;48.148;11.526;2024-02-21T14:02:05;0.40;;;0.30;;
22955;SDS011;40888;48.148;11.526;2024-02-21T14:04:33;0.27;;;0.27;;
22955;SDS011;40888;48.148;11.526;2024-02-21T14:06:59;1.60;;;0.33;;
22955;SDS011;40888;48.148;11.526;2024-02-21T14:09:25;0.53;;;0.23;;
22955;SDS011;40888;48.148;11.526;2024-02-21T14:11:51;0.30;;;0.30;;
22955;SDS011;40888;48.148;11.526;2024-02-21T14:14:17;2.13;;;0.40;;
22955;SDS011;40888;48.148;11.526;2024-02-21T14:16:42;0.30;;;0.30;;
22955;SDS011;40888;48.148;11.526;2024-02-21T14:19:08;0.52;;;0.45;;
22955;SDS011;40888;48.148;11.526;2024-02-21T14:21:34;0.93;;;0.40;;
22955;SDS011;40888;48.148;11.526;2024-02-21T14:24:04;0.93;;;0.50;;
22955;SDS011;40888;48.148;11.526;2024-02-21T14:26:30;0.83;;;0.40;;
22955;SDS011;40888;48.148;11.526;2024-02-21T14:28:59;1.07;;;0.50;;
22955;SDS011;40888;48.148;11.526;2024-02-21T14:31:25;2.27;;;0.70;;
22955;SDS011;40888;48.148;11.526;2024-02-21T14:33:51;0.40;;;0.40;;
22955;SDS011;40888;48.148;11.526;2024-02-21T14:36:17;1.07;;;0.60;;